createdAt,value
2022-08-22T00:00:17.426Z,100.00
2022-08-22T00:02:59.524Z,100.00
2022-08-22T00:03:04.494Z,100.00
2022-08-22T00:03:08.202Z,100.00
2022-08-22T00:05:58.752Z,100.00
2022-08-22T00:08:33.387Z,100.00
2022-08-22T00:11:09.183Z,100.00
2022-08-22T00:13:43.855Z,100.00
2022-08-22T00:16:19.208Z,100.00
2022-08-22T00:18:55.792Z,100.00
2022-08-22T00:21:30.079Z,100.00
2022-08-22T00:24:15.251Z,100.00
2022-08-22T00:26:49.802Z,100.00
2022-08-22T00:29:23.543Z,100.00
2022-08-22T00:32:06.454Z,100.00
2022-08-22T00:34:39.985Z,100.00
2022-08-22T00:37:11.228Z,100.00
2022-08-22T00:39:46.079Z,100.00
2022-08-22T00:42:41.477Z,100.00
2022-08-22T00:45:32.029Z,100.00
2022-08-22T00:48:18.353Z,100.00
2022-08-22T00:51:29.220Z,100.00
2022-08-22T00:54:07.031Z,100.00
2022-08-22T00:57:27.019Z,100.00
2022-08-22T01:00:15.897Z,100.00
2022-08-22T01:03:07.375Z,100.00
2022-08-22T01:05:53.993Z,100.00
2022-08-22T01:08:43.412Z,100.00
2022-08-22T01:11:33.745Z,100.00
2022-08-22T01:14:15.799Z,100.00
2022-08-22T01:17:17.372Z,100.00
2022-08-22T01:20:11.688Z,100.00
2022-08-22T01:23:27.041Z,100.00
2022-08-22T01:26:47.726Z,100.00
2022-08-22T01:30:01.099Z,100.00
2022-08-22T01:33:08.022Z,100.00
2022-08-22T01:35:59.692Z,100.00
2022-08-22T01:38:47.655Z,100.00
2022-08-22T01:41:35.682Z,100.00
2022-08-22T01:44:16.274Z,100.00
2022-08-22T01:46:56.503Z,100.00
2022-08-22T01:49:28.423Z,100.00
2022-08-22T01:52:07.356Z,100.00
2022-08-22T01:54:45.125Z,100.00
2022-08-22T01:57:14.770Z,100.00
2022-08-22T01:59:47.047Z,100.00
2022-08-22T02:02:25.273Z,100.00
2022-08-22T02:04:59.776Z,100.00
2022-08-22T02:07:40.034Z,100.00
2022-08-22T02:10:14.127Z,100.00
2022-08-22T02:12:46.679Z,100.00
2022-08-22T02:15:21.116Z,100.00
2022-08-22T02:18:18.545Z,100.00
2022-08-22T02:21:03.847Z,100.00
2022-08-22T02:23:44.578Z,100.00
2022-08-22T02:26:17.703Z,100.00
2022-08-22T02:28:57.906Z,100.00
2022-08-22T02:31:38.139Z,100.00
2022-08-22T02:34:34.884Z,100.00
2022-08-22T02:37:12.453Z,100.00
2022-08-22T02:39:50.224Z,100.00
2022-08-22T02:42:27.694Z,100.00
2022-08-22T02:45:04.058Z,100.00
2022-08-22T02:47:41.039Z,100.00
2022-08-22T02:50:27.591Z,100.00
2022-08-22T02:53:02.389Z,100.00
2022-08-22T02:55:43.353Z,100.00
2022-08-22T02:58:20.954Z,100.00
2022-08-22T03:00:52.335Z,100.00
2022-08-22T03:03:26.377Z,100.00
2022-08-22T03:06:01.875Z,100.00
2022-08-22T03:08:34.535Z,100.00
2022-08-22T03:11:16.564Z,100.00
2022-08-22T03:14:02.828Z,100.00
2022-08-22T03:16:39.259Z,100.00
2022-08-22T03:19:13.244Z,100.00
2022-08-22T03:21:58.237Z,100.00
2022-08-22T03:24:33.272Z,100.00
2022-08-22T03:27:08.869Z,100.00
2022-08-22T03:29:40.341Z,100.00
2022-08-22T03:32:16.713Z,100.00
2022-08-22T03:35:00.293Z,100.00
2022-08-22T03:37:39.117Z,100.00
2022-08-22T03:40:22.015Z,100.00
2022-08-22T03:43:08.426Z,100.00
2022-08-22T03:46:13.363Z,100.00
2022-08-22T03:49:26.209Z,100.00
2022-08-22T03:52:12.132Z,100.00
2022-08-22T03:55:07.477Z,100.00
2022-08-22T03:58:27.469Z,100.00
2022-08-22T04:01:36.122Z,100.00
2022-08-22T04:04:45.406Z,100.00
2022-08-22T04:07:45.629Z,100.00
2022-08-22T04:10:37.816Z,100.00
2022-08-22T04:13:25.894Z,100.00
2022-08-22T04:16:24.226Z,100.00
2022-08-22T04:19:12.212Z,100.00
2022-08-22T04:22:02.421Z,100.00
2022-08-22T04:24:48.389Z,100.00
2022-08-22T04:27:25.166Z,100.00
2022-08-22T04:30:03.577Z,100.00
2022-08-22T04:32:38.560Z,100.00
2022-08-22T04:35:11.742Z,100.00
2022-08-22T04:37:48.134Z,100.00
2022-08-22T04:40:23.089Z,100.00
2022-08-22T04:42:55.236Z,100.00
2022-08-22T04:45:28.356Z,100.00
2022-08-22T04:48:05.804Z,100.00
2022-08-22T04:50:43.296Z,100.00
2022-08-22T04:53:26.648Z,100.00
2022-08-22T04:56:07.678Z,100.00
2022-08-22T04:58:44.233Z,100.00
2022-08-22T05:01:17.559Z,100.00
2022-08-22T05:03:53.765Z,100.00
2022-08-22T05:06:26.494Z,100.00
2022-08-22T05:08:56.843Z,100.00
2022-08-22T05:11:25.570Z,100.00
2022-08-22T05:13:57.377Z,100.00
2022-08-22T05:16:29.491Z,100.00
2022-08-22T05:19:03.906Z,100.00
2022-08-22T05:21:36.087Z,100.00
2022-08-22T05:24:07.725Z,100.00
2022-08-22T05:26:41.466Z,100.00
2022-08-22T05:29:12.441Z,100.00
2022-08-22T05:31:46.850Z,100.00
2022-08-22T05:34:20.587Z,100.00
2022-08-22T05:36:56.310Z,100.00
2022-08-22T05:39:27.842Z,100.00
2022-08-22T05:41:58.536Z,100.00
2022-08-22T05:44:28.867Z,100.00
2022-08-22T05:47:02.815Z,100.00
2022-08-22T05:49:38.846Z,100.00
2022-08-22T05:52:17.984Z,100.00
2022-08-22T05:54:54.011Z,100.00
2022-08-22T05:57:28.843Z,100.00
2022-08-22T06:00:09.993Z,100.00
2022-08-22T06:02:58.835Z,100.00
2022-08-22T06:05:30.188Z,100.00
2022-08-22T06:08:04.512Z,100.00
2022-08-22T06:10:41.160Z,100.00
2022-08-22T06:13:15.050Z,100.00
2022-08-22T06:15:50.736Z,100.00
2022-08-22T06:18:24.924Z,100.00
2022-08-22T06:20:57.376Z,100.00
2022-08-22T06:23:29.927Z,100.00
2022-08-22T06:26:01.662Z,100.00
2022-08-22T06:28:34.969Z,100.00
2022-08-22T06:31:04.731Z,100.00
2022-08-22T06:33:40.283Z,100.00
2022-08-22T06:36:32.564Z,100.00
2022-08-22T06:39:21.051Z,100.00
2022-08-22T06:42:05.192Z,100.00
2022-08-22T06:44:37.415Z,100.00
2022-08-22T06:47:09.050Z,100.00
2022-08-22T06:49:40.335Z,100.00
2022-08-22T06:52:14.776Z,100.00
2022-08-22T06:54:49.280Z,100.00
2022-08-22T06:57:28.462Z,100.00
2022-08-22T06:59:58.224Z,100.00
2022-08-22T07:02:31.731Z,100.00
2022-08-22T07:05:00.122Z,100.00
2022-08-22T07:07:29.747Z,100.00
2022-08-22T07:09:58.049Z,100.00
2022-08-22T07:12:35.243Z,100.00
2022-08-22T07:15:19.499Z,100.00
2022-08-22T07:17:54.783Z,100.00
2022-08-22T07:20:28.037Z,100.00
2022-08-22T07:23:02.312Z,100.00
2022-08-22T07:25:31.887Z,100.00
2022-08-22T07:28:15.937Z,100.00
2022-08-22T07:30:57.665Z,100.00
2022-08-22T07:33:44.132Z,100.00
2022-08-22T07:36:25.715Z,100.00
2022-08-22T07:39:13.298Z,100.00
2022-08-22T07:41:54.757Z,100.00
2022-08-22T07:44:25.428Z,100.00
2022-08-22T07:47:00.615Z,100.00
2022-08-22T07:49:33.373Z,100.00
2022-08-22T07:52:05.101Z,100.00
2022-08-22T07:54:42.108Z,100.00
2022-08-22T07:57:13.636Z,100.00
2022-08-22T07:59:49.152Z,100.00
2022-08-22T08:02:19.249Z,100.00
2022-08-22T08:04:50.911Z,100.00
2022-08-22T08:07:23.125Z,100.00
2022-08-22T08:09:58.519Z,100.00
2022-08-22T08:12:37.072Z,100.00
2022-08-22T08:15:08.761Z,100.00
2022-08-22T08:17:39.847Z,100.00
2022-08-22T08:20:12.602Z,100.00
2022-08-22T08:22:44.421Z,100.00
2022-08-22T08:25:20.397Z,100.00
2022-08-22T08:28:06.457Z,100.00
2022-08-22T08:30:46.617Z,100.00
2022-08-22T08:33:24.865Z,100.00
2022-08-22T08:36:02.810Z,100.00
2022-08-22T08:38:35.192Z,100.00
2022-08-22T08:41:34.468Z,100.00
2022-08-22T08:44:17.581Z,100.00
2022-08-22T08:47:34.495Z,100.00
2022-08-22T08:50:24.833Z,100.00
2022-08-22T08:53:24.275Z,100.00
2022-08-22T08:55:58.985Z,100.00
2022-08-22T08:58:40.801Z,100.00
2022-08-22T09:01:20.825Z,100.00
2022-08-22T09:04:40.223Z,100.00
2022-08-22T09:07:35.626Z,100.00
2022-08-22T09:10:23.055Z,100.00
2022-08-22T09:13:15.079Z,100.00
2022-08-22T09:16:05.300Z,100.00
2022-08-22T09:19:04.597Z,100.00
2022-08-22T09:22:14.557Z,100.00
2022-08-22T09:25:12.440Z,100.00
2022-08-22T09:27:50.085Z,100.00
2022-08-22T09:30:28.564Z,100.00
2022-08-22T09:33:03.739Z,100.00
2022-08-22T09:35:45.404Z,100.00
2022-08-22T09:38:29.157Z,100.00
2022-08-22T09:41:09.944Z,100.00
2022-08-22T09:43:48.344Z,100.00
2022-08-22T09:46:31.428Z,100.00
2022-08-22T09:49:13.348Z,100.00
2022-08-22T09:51:49.911Z,100.00
2022-08-22T09:54:31.371Z,100.00
2022-08-22T09:57:16.579Z,100.00
2022-08-22T10:00:17.556Z,100.00
2022-08-22T10:03:01.430Z,100.00
2022-08-22T10:05:43.973Z,100.00
2022-08-22T10:08:20.465Z,96.71
2022-08-22T10:11:15.468Z,97.27
2022-08-22T10:14:00.769Z,94.21
2022-08-22T10:16:50.292Z,90.97
2022-08-22T10:19:26.506Z,89.03
2022-08-22T10:24:59.687Z,80.81
2022-08-22T10:27:44.673Z,78.08
2022-08-22T10:30:18.390Z,74.03
2022-08-22T10:32:52.677Z,84.36
2022-08-22T10:35:27.866Z,81.54
2022-08-22T10:38:00.426Z,76.80
2022-08-22T10:40:39.319Z,81.28
2022-08-22T10:43:13.827Z,85.77
2022-08-22T10:45:45.173Z,86.85
2022-08-22T10:48:35.156Z,90.72
2022-08-22T10:51:36.645Z,78.88
2022-08-22T10:54:20.134Z,81.86
2022-08-22T10:56:56.560Z,86.94
2022-08-22T10:59:40.121Z,91.69
2022-08-22T11:02:28.519Z,80.79
2022-08-22T11:05:16.305Z,77.48
2022-08-22T11:07:48.952Z,85.68
2022-08-22T11:10:30.702Z,82.32
2022-08-22T11:13:16.426Z,75.16
2022-08-22T11:16:04.319Z,75.41
2022-08-22T11:19:02.026Z,86.97
2022-08-22T11:21:43.066Z,77.50
2022-08-22T11:24:53.965Z,69.25
2022-08-22T11:27:38.415Z,76.95
2022-08-22T11:30:18.617Z,70.55
2022-08-22T11:33:33.825Z,73.11
2022-08-22T11:36:31.040Z,78.92
2022-08-22T11:39:19.069Z,82.66
2022-08-22T11:41:56.204Z,79.08
2022-08-22T11:44:32.306Z,71.69
2022-08-22T11:47:09.913Z,75.13
2022-08-22T11:49:51.696Z,67.39
2022-08-22T11:52:37.725Z,68.62
2022-08-22T11:55:21.529Z,69.84
2022-08-22T11:57:52.256Z,64.14
2022-08-22T12:00:27.291Z,64.97
2022-08-22T12:03:23.534Z,63.08
2022-08-22T12:05:55.978Z,64.03
2022-08-22T12:08:46.239Z,63.06
2022-08-22T12:11:23.676Z,71.51
2022-08-22T12:14:05.892Z,70.90
2022-08-22T12:16:44.940Z,63.20
2022-08-22T12:19:22.935Z,55.74
2022-08-22T12:22:32.269Z,69.29
2022-08-22T12:25:15.467Z,60.01
2022-08-22T12:28:07.461Z,60.75
2022-08-22T12:30:44.854Z,56.20
2022-08-22T12:33:45.317Z,50.37
2022-08-22T12:36:53.323Z,71.00
2022-08-22T12:39:55.752Z,56.20
2022-08-22T12:42:43.019Z,57.23
2022-08-22T12:45:33.522Z,54.91
2022-08-22T12:48:14.544Z,58.19
2022-08-22T12:50:50.543Z,56.71
2022-08-22T12:53:51.888Z,60.25
2022-08-22T12:56:33.353Z,59.48
2022-08-22T12:59:20.609Z,49.31
2022-08-22T13:01:51.378Z,55.15
2022-08-22T13:04:33.544Z,58.98
2022-08-22T13:07:18.262Z,54.85
2022-08-22T13:09:52.384Z,52.32
2022-08-22T13:12:25.779Z,47.67
2022-08-22T13:15:00.194Z,45.66
2022-08-22T13:17:29.120Z,48.23
2022-08-22T13:20:10.634Z,44.35
2022-08-22T13:22:45.428Z,47.83
2022-08-22T13:25:26.179Z,45.55
2022-08-22T13:27:59.306Z,48.33
2022-08-22T13:30:33.665Z,45.26
2022-08-22T13:33:09.566Z,41.99
2022-08-22T13:35:49.187Z,42.66
2022-08-22T13:38:25.947Z,42.61
2022-08-22T13:40:58.644Z,40.23
2022-08-22T13:43:30.199Z,39.12
2022-08-22T13:46:01.877Z,40.86
2022-08-22T13:48:46.707Z,43.95
2022-08-22T13:51:22.353Z,43.78
2022-08-22T13:54:01.060Z,40.18
2022-08-22T13:56:43.516Z,38.92
2022-08-22T13:59:47.150Z,42.38
2022-08-22T14:02:15.168Z,44.21
2022-08-22T14:04:48.179Z,50.17
2022-08-22T14:07:30.274Z,50.74
2022-08-22T14:10:03.109Z,47.45
2022-08-22T14:12:50.131Z,49.71
2022-08-22T14:15:24.140Z,50.23
2022-08-22T14:17:56.903Z,50.56
2022-08-22T14:20:28.558Z,49.91
2022-08-22T14:23:04.269Z,43.62
2022-08-22T14:25:36.924Z,46.75
2022-08-22T14:28:09.312Z,46.67
2022-08-22T14:30:54.644Z,48.74
2022-08-22T14:33:33.290Z,50.23
2022-08-22T14:36:05.327Z,50.53
2022-08-22T14:38:39.418Z,48.68
2022-08-22T14:41:28.443Z,57.01
2022-08-22T14:44:23.942Z,54.25
2022-08-22T14:46:56.577Z,57.56
2022-08-22T14:49:48.333Z,58.20
2022-08-22T14:52:30.168Z,54.71
2022-08-22T14:55:09.974Z,52.88
2022-08-22T14:57:44.990Z,58.80
2022-08-22T15:00:24.756Z,53.58
2022-08-22T15:03:11.732Z,55.06
2022-08-22T15:05:46.589Z,56.06
2022-08-22T15:08:24.331Z,51.89
2022-08-22T15:11:15.523Z,56.39
2022-08-22T15:13:51.322Z,50.50
2022-08-22T15:16:24.220Z,53.13
2022-08-22T15:18:52.309Z,51.00
2022-08-22T15:21:24.806Z,48.87
2022-08-22T15:23:55.787Z,45.83
2022-08-22T15:26:30.704Z,48.87
2022-08-22T15:29:06.918Z,46.29
2022-08-22T15:31:41.473Z,50.66
2022-08-22T15:34:18.024Z,56.66
2022-08-22T15:37:09.865Z,56.77
2022-08-22T15:40:08.058Z,58.71
2022-08-22T15:42:40.562Z,55.33
2022-08-22T15:45:19.122Z,62.48
2022-08-22T15:47:52.216Z,52.60
2022-08-22T15:50:33.348Z,55.21
2022-08-22T15:53:18.259Z,55.40
2022-08-22T15:56:29.165Z,57.52
2022-08-22T15:59:27.512Z,53.09
2022-08-22T16:02:01.582Z,55.83
2022-08-22T16:04:49.296Z,61.25
2022-08-22T16:07:26.458Z,58.53
2022-08-22T16:09:57.849Z,55.53
2022-08-22T16:12:31.089Z,58.42
2022-08-22T16:15:01.049Z,57.92
2022-08-22T16:17:53.234Z,60.86
2022-08-22T16:20:56.973Z,59.31
2022-08-22T16:23:24.960Z,60.80
2022-08-22T16:26:10.659Z,64.69
2022-08-22T16:28:59.163Z,60.93
2022-08-22T16:31:34.800Z,67.38
2022-08-22T16:34:23.855Z,68.33
2022-08-22T16:37:46.487Z,70.18
2022-08-22T16:40:20.024Z,76.17
2022-08-22T16:42:52.651Z,76.15
2022-08-22T16:45:31.144Z,79.63
2022-08-22T16:47:59.514Z,79.93
2022-08-22T16:50:36.675Z,80.02
2022-08-22T16:53:11.778Z,77.51
2022-08-22T16:55:46.306Z,74.33
2022-08-22T16:58:57.812Z,81.05
2022-08-22T17:01:52.158Z,82.51
2022-08-22T17:04:28.008Z,75.62
2022-08-22T17:07:07.090Z,69.36
2022-08-22T17:10:03.191Z,78.43
2022-08-22T17:12:46.020Z,77.77
2022-08-22T17:15:32.514Z,79.20
2022-08-22T17:18:21.244Z,77.00
2022-08-22T17:21:06.682Z,76.73
2022-08-22T17:23:52.093Z,79.92
2022-08-22T17:26:37.371Z,82.28
2022-08-22T17:29:15.984Z,82.62
2022-08-22T17:31:54.671Z,87.65
2022-08-22T17:34:37.468Z,87.35
2022-08-22T17:37:11.295Z,84.63
2022-08-22T17:40:07.354Z,92.22
2022-08-22T17:42:52.409Z,92.31
2022-08-22T17:45:28.385Z,93.33
2022-08-22T17:48:01.644Z,94.20
2022-08-22T17:50:39.346Z,95.80
2022-08-22T17:53:13.065Z,99.64
2022-08-22T17:55:59.570Z,98.81
2022-08-22T17:58:43.421Z,100.00
2022-08-22T18:01:15.262Z,100.00
2022-08-22T18:03:51.862Z,100.00
2022-08-22T18:06:23.729Z,100.00
2022-08-22T18:09:14.111Z,100.00
2022-08-22T18:11:51.126Z,100.00
2022-08-22T18:14:31.040Z,100.00
2022-08-22T18:17:01.075Z,100.00
2022-08-22T18:19:42.908Z,100.00
2022-08-22T18:22:23.274Z,100.00
2022-08-22T18:24:56.510Z,100.00
2022-08-22T18:27:34.806Z,100.00
2022-08-22T18:30:15.382Z,100.00
2022-08-22T18:32:53.727Z,100.00
2022-08-22T18:35:26.723Z,100.00
2022-08-22T18:38:01.676Z,100.00
2022-08-22T18:40:46.869Z,100.00
2022-08-22T18:43:23.856Z,100.00
2022-08-22T18:46:03.963Z,100.00
2022-08-22T18:49:05.444Z,100.00
2022-08-22T18:51:38.300Z,100.00
2022-08-22T18:54:28.508Z,100.00
2022-08-22T18:57:06.886Z,100.00
2022-08-22T18:59:47.614Z,100.00
2022-08-22T19:02:39.060Z,100.00
2022-08-22T19:05:28.484Z,100.00
2022-08-22T19:08:40.445Z,100.00
2022-08-22T19:11:36.448Z,100.00
2022-08-22T19:14:21.632Z,100.00
2022-08-22T19:17:29.354Z,100.00
2022-08-22T19:20:19.633Z,100.00
2022-08-22T19:22:51.151Z,100.00
2022-08-22T19:25:26.038Z,100.00
2022-08-22T19:28:26.707Z,100.00
2022-08-22T19:31:22.653Z,100.00
2022-08-22T19:34:11.743Z,100.00
2022-08-22T19:36:41.512Z,100.00
2022-08-22T19:39:10.588Z,100.00
2022-08-22T19:41:52.826Z,100.00
2022-08-22T19:44:37.565Z,100.00
2022-08-22T19:47:16.608Z,100.00
2022-08-22T19:49:49.351Z,100.00
2022-08-22T19:52:31.181Z,100.00
2022-08-22T19:55:16.352Z,100.00
2022-08-22T19:57:56.657Z,100.00
2022-08-22T20:00:47.537Z,100.00
2022-08-22T20:03:30.982Z,100.00
2022-08-22T20:06:13.746Z,100.00
2022-08-22T20:09:04.742Z,100.00
2022-08-22T20:11:44.973Z,100.00
2022-08-22T20:14:29.903Z,100.00
2022-08-22T20:17:09.061Z,100.00
2022-08-22T20:19:40.083Z,100.00
2022-08-22T20:22:11.980Z,100.00
2022-08-22T20:24:46.675Z,100.00
2022-08-22T20:27:18.607Z,100.00
2022-08-22T20:29:54.961Z,100.00
2022-08-22T20:32:26.064Z,100.00
2022-08-22T20:35:00.632Z,100.00
2022-08-22T20:37:56.226Z,100.00
2022-08-22T20:40:55.324Z,100.00
2022-08-22T20:43:28.883Z,100.00
2022-08-22T20:46:06.990Z,100.00
2022-08-22T20:48:39.318Z,100.00
2022-08-22T20:51:09.260Z,100.00
2022-08-22T20:53:38.423Z,100.00
2022-08-22T20:56:09.533Z,100.00
2022-08-22T20:58:40.931Z,100.00
2022-08-22T21:01:12.440Z,100.00
2022-08-22T21:03:44.302Z,100.00
2022-08-22T21:06:15.275Z,100.00
2022-08-22T21:08:44.434Z,100.00
2022-08-22T21:11:41.004Z,100.00
2022-08-22T21:14:24.178Z,100.00
2022-08-22T21:16:53.094Z,100.00
2022-08-22T21:19:27.556Z,100.00
2022-08-22T21:22:10.755Z,100.00
2022-08-22T21:24:38.685Z,100.00
2022-08-22T21:27:09.369Z,100.00
2022-08-22T21:29:45.248Z,100.00
2022-08-22T21:32:24.552Z,100.00
2022-08-22T21:34:53.171Z,100.00
2022-08-22T21:37:26.943Z,100.00
2022-08-22T21:40:01.708Z,100.00
2022-08-22T21:42:35.877Z,100.00
2022-08-22T21:45:07.029Z,100.00
2022-08-22T21:47:37.041Z,100.00
2022-08-22T21:50:16.255Z,100.00
2022-08-22T21:52:45.907Z,100.00
2022-08-22T21:55:25.410Z,100.00
2022-08-22T21:58:13.707Z,100.00
2022-08-22T22:01:03.083Z,100.00
2022-08-22T22:03:36.753Z,100.00
2022-08-22T22:06:06.768Z,100.00
2022-08-22T22:08:34.942Z,100.00
2022-08-22T22:11:08.493Z,100.00
2022-08-22T22:13:38.392Z,100.00
2022-08-22T22:16:07.690Z,100.00
2022-08-22T22:18:36.765Z,100.00
2022-08-22T22:21:05.768Z,100.00
2022-08-22T22:23:33.742Z,100.00
2022-08-22T22:26:05.406Z,100.00
2022-08-22T22:28:35.915Z,100.00
2022-08-22T22:31:05.991Z,100.00
2022-08-22T22:33:39.247Z,100.00
2022-08-22T22:36:11.148Z,100.00
2022-08-22T22:38:40.345Z,100.00
2022-08-22T22:41:08.735Z,100.00
2022-08-22T22:43:36.806Z,100.00
2022-08-22T22:46:06.435Z,100.00
2022-08-22T22:48:34.735Z,100.00
2022-08-22T22:51:09.238Z,100.00
2022-08-22T22:53:42.771Z,100.00
2022-08-22T22:56:14.253Z,100.00
2022-08-22T22:58:44.314Z,100.00
2022-08-22T23:01:16.402Z,100.00
2022-08-22T23:03:45.235Z,100.00
2022-08-22T23:06:14.477Z,100.00
2022-08-22T23:08:42.709Z,100.00
2022-08-22T23:11:12.628Z,100.00
2022-08-22T23:13:41.729Z,100.00
2022-08-22T23:16:15.016Z,100.00
2022-08-22T23:18:43.197Z,100.00
2022-08-22T23:21:12.729Z,100.00
2022-08-22T23:23:40.653Z,100.00
2022-08-22T23:26:09.308Z,100.00
2022-08-22T23:28:37.686Z,100.00
2022-08-22T23:31:17.437Z,100.00
2022-08-22T23:33:46.557Z,100.00
2022-08-22T23:36:17.884Z,100.00
2022-08-22T23:38:46.126Z,100.00
2022-08-22T23:41:17.614Z,100.00
2022-08-22T23:43:47.607Z,100.00
2022-08-22T23:46:19.340Z,100.00
2022-08-22T23:48:47.806Z,100.00
2022-08-22T23:51:17.461Z,100.00
2022-08-22T23:53:51.407Z,100.00
2022-08-22T23:56:22.770Z,100.00
2022-08-22T23:58:51.167Z,100.00
